Stuart, VA (24171)

5:41 AM EDT on August 28, 2015 (GMT -0400)
Mulberry farm | | Change Station
CLOSE
Current Station
Personal Weather Station
Location: Stuart, VA
Elevation: 1604 ft
Nearby Weather Stations

Elev 1604 ft 36.65 °N, 80.32 °W | Updated 8 seconds ago

Mostly Cloudy
Mostly Cloudy
57.1 °F
Feels Like 57.1 °F
N
0.0
Wind Variable Wind from NW
Gusts 0.0 mph

Today
High -- | Low -- °F
--% Chance of Precip.
Yesterday
High -- | Low -- °F
Precip. -- in
6:48 AM 7:55 PM
Waxing Gibbous, 97% visible
Pressure 30.19 in
Visibility 7.0 miles
Clouds Scattered Clouds 8000 ft
Dew Point 57 °F
Humidity 100%
Rainfall 0.00 in
Snow Depth Not available.
UV 0 out of 12
Pollen 8.30 out of 12
Air Quality Not available.
Flu Activity Not available.
METAR KMTV 280915Z AUTO 00000KT 7SM SCT080 15/15 A3019 RMK AO2 T01450145
Pressure 30.19 in
Visibility 7.0 miles
Clouds Scattered Clouds 8000 ft
Dew Point 57 °F
Humidity 100%
Rainfall 0.00 in
Snow Depth Not available.
UV 0 out of 12
Pollen 8.30 out of 12
Air Quality Not available.
Flu Activity Not available.
METAR KMTV 280915Z AUTO 00000KT 7SM SCT080 15/15 A3019 RMK AO2 T01450145

10-Day Weather Forecast

×

Almanac

Astronomy

Aug. 28, 2015 Rise Set
Actual Time
Civil Twilight
Nautical Twilight
Astronomical Twilight
Moon
Length of Visible Light
Length of Day
Tomorrow will be .
, % of the Moon is Illuminated

Today's Extremes

State Highs State Lows

Community

WunderPhotos

Upload Photos

1,850,352 photos uploaded!

WunderBlogs® & News

Nearby

Air Quality

  Air Quality AQ Index Pollutant
Not available.

Snow Depth

Station Depth Elevation

Earthquake Activity

City Distance Mag. Time & Date
Minimum magnitude displayed is 2.5.

Coastal Water Temperatures

Place Temperature

Stations

Nearby Weather Stations

Station Location Temp. Windchill Dew Point Humidity Wind Precip. Elev Updated Type